Changping, China
Current Conditions -  °F | °C
As of 6:30 PM on Thursday 18 Dec 2014 (Local Time) from ZBAA Reporting Station
Haze Haze  
Wind Chill: 27°   Ceiling: Unl
Heat Index: 27°   Visibility: 3mi
Dew Point: 19°   Wind: 2mph
Humidity: 74%   Direction: NA
Pressure: 30.27"   Gusts: NA
Location:  40.22°N, 116.2°E
Report Text: ZBAA 181030Z VRB01MPS 5000 HZ NSC M03/M07 Q1025 NOSIG
Loading
Personal Weather Stations






























Interactive Weather Map New forecast layout! Learn more

10-Day Weather Forecast

Advertisements
Track Severe Weather on mobile